sensor_id;sensor_type;location;lat;lon;timestamp;temperature;humidity
8872;DHT22;4472;52.092;9.820;2023-03-01T00:23:06;-3.00;99.90
8872;DHT22;4472;52.092;9.820;2023-03-01T01:52:44;-3.60;99.90
8872;DHT22;4472;52.092;9.820;2023-03-01T01:55:32;-3.60;99.90
8872;DHT22;4472;52.092;9.820;2023-03-01T01:58:21;-3.50;99.90
8872;DHT22;4472;52.092;9.820;2023-03-01T02:01:08;-3.60;99.90
8872;DHT22;4472;52.092;9.820;2023-03-01T02:03:55;-3.70;99.90
8872;DHT22;4472;52.092;9.820;2023-03-01T02:06:48;-3.80;99.90
8872;DHT22;4472;52.092;9.820;2023-03-01T02:09:38;-3.80;99.90
8872;DHT22;4472;52.092;9.820;2023-03-01T02:12:25;-3.90;99.90
8872;DHT22;4472;52.092;9.820;2023-03-01T02:15:13;-3.90;99.90
8872;DHT22;4472;52.092;9.820;2023-03-01T02:18:01;-3.80;99.90
8872;DHT22;4472;52.092;9.820;2023-03-01T02:29:25;-4.00;99.90
8872;DHT22;4472;52.092;9.820;2023-03-01T02:32:14;-4.10;99.90
8872;DHT22;4472;52.092;9.820;2023-03-01T02:35:02;-4.10;99.90
8872;DHT22;4472;52.092;9.820;2023-03-01T02:37:52;-4.10;99.90
8872;DHT22;4472;52.092;9.820;2023-03-01T02:40:43;-4.20;99.90
8872;DHT22;4472;52.092;9.820;2023-03-01T02:43:33;-4.20;99.90
8872;DHT22;4472;52.092;9.820;2023-03-01T02:46:23;-4.20;99.90
8872;DHT22;4472;52.092;9.820;2023-03-01T02:49:24;-4.20;99.90
8872;DHT22;4472;52.092;9.820;2023-03-01T02:52:29;-4.30;99.90
8872;DHT22;4472;52.092;9.820;2023-03-01T02:55:18;-4.30;99.90
8872;DHT22;4472;52.092;9.820;2023-03-01T02:58:05;-4.40;99.90
8872;DHT22;4472;52.092;9.820;2023-03-01T03:00:52;-4.40;99.90
8872;DHT22;4472;52.092;9.820;2023-03-01T03:03:41;-4.40;99.90
8872;DHT22;4472;52.092;9.820;2023-03-01T03:06:29;-4.50;99.90
8872;DHT22;4472;52.092;9.820;2023-03-01T03:09:17;-4.50;99.90
8872;DHT22;4472;52.092;9.820;2023-03-01T03:12:05;-4.50;99.90
8872;DHT22;4472;52.092;9.820;2023-03-01T03:14:52;-4.60;99.90
8872;DHT22;4472;52.092;9.820;2023-03-01T03:17:40;-4.60;99.90
8872;DHT22;4472;52.092;9.820;2023-03-01T03:20:29;-4.70;99.90
8872;DHT22;4472;52.092;9.820;2023-03-01T03:23:17;-4.70;99.90
8872;DHT22;4472;52.092;9.820;2023-03-01T03:26:05;-4.70;99.90
8872;DHT22;4472;52.092;9.820;2023-03-01T03:28:52;-4.70;99.90
8872;DHT22;4472;52.092;9.820;2023-03-01T03:31:40;-4.70;99.90
8872;DHT22;4472;52.092;9.820;2023-03-01T03:34:27;-4.70;99.90
8872;DHT22;4472;52.092;9.820;2023-03-01T03:37:15;-4.60;99.90
8872;DHT22;4472;52.092;9.820;2023-03-01T03:40:16;-4.60;99.90
8872;DHT22;4472;52.092;9.820;2023-03-01T03:43:05;-4.50;99.90
8872;DHT22;4472;52.092;9.820;2023-03-01T03:45:52;-4.50;99.90
8872;DHT22;4472;52.092;9.820;2023-03-01T03:48:44;-4.50;99.90
8872;DHT22;4472;52.092;9.820;2023-03-01T03:51:31;-4.50;99.90
8872;DHT22;4472;52.092;9.820;2023-03-01T03:54:20;-4.50;99.90
8872;DHT22;4472;52.092;9.820;2023-03-01T03:57:07;-4.60;99.90
8872;DHT22;4472;52.092;9.820;2023-03-01T03:59:54;-4.70;99.90
8872;DHT22;4472;52.092;9.820;2023-03-01T04:02:42;-4.70;99.90
8872;DHT22;4472;52.092;9.820;2023-03-01T04:05:29;-4.70;99.90
8872;DHT22;4472;52.092;9.820;2023-03-01T04:08:17;-4.70;99.90
8872;DHT22;4472;52.092;9.820;2023-03-01T04:11:07;-4.80;99.90
8872;DHT22;4472;52.092;9.820;2023-03-01T04:14:08;-4.80;99.90
8872;DHT22;4472;52.092;9.820;2023-03-01T04:16:56;-4.80;99.90
8872;DHT22;4472;52.092;9.820;2023-03-01T04:19:43;-4.80;99.90
8872;DHT22;4472;52.092;9.820;2023-03-01T04:22:34;-4.80;99.90
8872;DHT22;4472;52.092;9.820;2023-03-01T04:25:21;-4.80;99.90
8872;DHT22;4472;52.092;9.820;2023-03-01T04:28:10;-4.80;99.90
8872;DHT22;4472;52.092;9.820;2023-03-01T04:30:58;-4.70;99.90
8872;DHT22;4472;52.092;9.820;2023-03-01T04:33:52;-4.70;99.90
8872;DHT22;4472;52.092;9.820;2023-03-01T04:36:39;-4.70;99.90
8872;DHT22;4472;52.092;9.820;2023-03-01T04:39:26;-4.70;99.90
8872;DHT22;4472;52.092;9.820;2023-03-01T04:42:13;-4.80;99.90
8872;DHT22;4472;52.092;9.820;2023-03-01T04:45:02;-4.70;99.90
8872;DHT22;4472;52.092;9.820;2023-03-01T04:47:49;-4.80;99.90
8872;DHT22;4472;52.092;9.820;2023-03-01T04:50:37;-4.80;99.90
8872;DHT22;4472;52.092;9.820;2023-03-01T04:53:25;-5.00;99.90
8872;DHT22;4472;52.092;9.820;2023-03-01T04:56:12;-4.90;99.90
8872;DHT22;4472;52.092;9.820;2023-03-01T04:59:00;-5.00;99.90
8872;DHT22;4472;52.092;9.820;2023-03-01T05:01:54;-5.00;99.90
8872;DHT22;4472;52.092;9.820;2023-03-01T05:04:42;-5.00;99.90
8872;DHT22;4472;52.092;9.820;2023-03-01T05:07:29;-4.80;99.90
8872;DHT22;4472;52.092;9.820;2023-03-01T05:10:16;-4.90;99.90
8872;DHT22;4472;52.092;9.820;2023-03-01T05:13:03;-4.90;99.90
8872;DHT22;4472;52.092;9.820;2023-03-01T05:15:54;-5.00;99.90
8872;DHT22;4472;52.092;9.820;2023-03-01T05:18:43;-5.00;99.90
8872;DHT22;4472;52.092;9.820;2023-03-01T05:21:31;-5.00;99.90
8872;DHT22;4472;52.092;9.820;2023-03-01T05:24:19;-5.00;99.90
8872;DHT22;4472;52.092;9.820;2023-03-01T05:27:07;-5.00;99.90
8872;DHT22;4472;52.092;9.820;2023-03-01T05:29:54;-5.10;99.90
8872;DHT22;4472;52.092;9.820;2023-03-01T05:32:42;-5.20;99.90
8872;DHT22;4472;52.092;9.820;2023-03-01T05:35:32;-5.20;99.90
8872;DHT22;4472;52.092;9.820;2023-03-01T05:38:21;-5.10;99.90
8872;DHT22;4472;52.092;9.820;2023-03-01T05:41:14;-5.10;99.90
8872;DHT22;4472;52.092;9.820;2023-03-01T05:44:01;-5.10;99.90
8872;DHT22;4472;52.092;9.820;2023-03-01T05:46:51;-5.00;99.90
8872;DHT22;4472;52.092;9.820;2023-03-01T05:49:38;-5.00;99.90
8872;DHT22;4472;52.092;9.820;2023-03-01T05:52:26;-5.00;99.90
8872;DHT22;4472;52.092;9.820;2023-03-01T05:55:14;-5.00;99.90
8872;DHT22;4472;52.092;9.820;2023-03-01T05:58:04;-5.00;99.90
8872;DHT22;4472;52.092;9.820;2023-03-01T06:00:51;-4.90;99.90
8872;DHT22;4472;52.092;9.820;2023-03-01T06:03:38;-5.10;99.90
8872;DHT22;4472;52.092;9.820;2023-03-01T06:06:26;-5.00;99.90
8872;DHT22;4472;52.092;9.820;2023-03-01T06:09:14;-5.10;99.90
8872;DHT22;4472;52.092;9.820;2023-03-01T06:12:01;-5.10;99.90
8872;DHT22;4472;52.092;9.820;2023-03-01T06:14:49;-4.90;99.90
8872;DHT22;4472;52.092;9.820;2023-03-01T06:17:37;-4.90;99.90
8872;DHT22;4472;52.092;9.820;2023-03-01T06:20:27;-4.90;99.90
8872;DHT22;4472;52.092;9.820;2023-03-01T06:23:14;-4.90;99.90
8872;DHT22;4472;52.092;9.820;2023-03-01T06:26:05;-4.90;99.90
8872;DHT22;4472;52.092;9.820;2023-03-01T06:28:52;-4.90;99.90
8872;DHT22;4472;52.092;9.820;2023-03-01T06:31:39;-5.00;99.90
8872;DHT22;4472;52.092;9.820;2023-03-01T06:34:27;-5.00;99.90
8872;DHT22;4472;52.092;9.820;2023-03-01T06:37:14;-5.00;99.90
8872;DHT22;4472;52.092;9.820;2023-03-01T06:40:01;-5.00;99.90
8872;DHT22;4472;52.092;9.820;2023-03-01T06:42:54;-5.00;99.90
8872;DHT22;4472;52.092;9.820;2023-03-01T06:45:41;-4.90;99.90
8872;DHT22;4472;52.092;9.820;2023-03-01T06:48:28;-4.90;99.90
8872;DHT22;4472;52.092;9.820;2023-03-01T06:51:15;-4.90;99.90
8872;DHT22;4472;52.092;9.820;2023-03-01T06:54:03;-4.90;99.90
8872;DHT22;4472;52.092;9.820;2023-03-01T06:56:50;-4.80;99.90
8872;DHT22;4472;52.092;9.820;2023-03-01T06:59:39;-4.70;99.90
8872;DHT22;4472;52.092;9.820;2023-03-01T07:02:26;-4.60;99.90
8872;DHT22;4472;52.092;9.820;2023-03-01T07:05:13;-4.60;99.90
8872;DHT22;4472;52.092;9.820;2023-03-01T07:08:01;-4.40;99.90
8872;DHT22;4472;52.092;9.820;2023-03-01T07:10:48;-4.40;99.90
8872;DHT22;4472;52.092;9.820;2023-03-01T07:13:35;-4.40;99.90
8872;DHT22;4472;52.092;9.820;2023-03-01T07:16:23;-4.20;99.90
8872;DHT22;4472;52.092;9.820;2023-03-01T07:19:11;-4.10;99.90
8872;DHT22;4472;52.092;9.820;2023-03-01T07:21:58;-4.10;99.90
8872;DHT22;4472;52.092;9.820;2023-03-01T07:24:45;-4.00;99.90
8872;DHT22;4472;52.092;9.820;2023-03-01T07:27:32;-4.00;99.90
8872;DHT22;4472;52.092;9.820;2023-03-01T07:30:20;-3.80;99.90
8872;DHT22;4472;52.092;9.820;2023-03-01T07:33:08;-3.70;99.90
8872;DHT22;4472;52.092;9.820;2023-03-01T07:35:56;-3.60;99.90
8872;DHT22;4472;52.092;9.820;2023-03-01T07:38:44;-3.40;99.90
8872;DHT22;4472;52.092;9.820;2023-03-01T07:41:31;-3.20;99.90
8872;DHT22;4472;52.092;9.820;2023-03-01T07:44:19;-3.20;99.90
8872;DHT22;4472;52.092;9.820;2023-03-01T07:47:06;-3.10;99.90
8872;DHT22;4472;52.092;9.820;2023-03-01T07:49:54;-3.00;99.90
8872;DHT22;4472;52.092;9.820;2023-03-01T07:52:41;-2.90;99.90
8872;DHT22;4472;52.092;9.820;2023-03-01T07:55:29;-2.70;99.90
8872;DHT22;4472;52.092;9.820;2023-03-01T07:58:16;-2.50;99.90
8872;DHT22;4472;52.092;9.820;2023-03-01T08:01:05;-2.40;99.90
8872;DHT22;4472;52.092;9.820;2023-03-01T08:03:52;-2.30;99.90
8872;DHT22;4472;52.092;9.820;2023-03-01T08:06:41;-2.20;99.90
8872;DHT22;4472;52.092;9.820;2023-03-01T08:09:28;-2.00;99.90
8872;DHT22;4472;52.092;9.820;2023-03-01T08:12:15;-1.90;99.90
8872;DHT22;4472;52.092;9.820;2023-03-01T08:15:02;-1.70;99.90
8872;DHT22;4472;52.092;9.820;2023-03-01T08:17:50;-1.60;99.90
8872;DHT22;4472;52.092;9.820;2023-03-01T08:20:37;-1.50;99.90
8872;DHT22;4472;52.092;9.820;2023-03-01T08:23:25;-1.30;99.90
8872;DHT22;4472;52.092;9.820;2023-03-01T08:26:14;-1.10;99.90
8872;DHT22;4472;52.092;9.820;2023-03-01T08:29:02;-0.90;99.90
8872;DHT22;4472;52.092;9.820;2023-03-01T08:31:49;-0.90;99.90
8872;DHT22;4472;52.092;9.820;2023-03-01T08:34:36;-0.80;99.90
8872;DHT22;4472;52.092;9.820;2023-03-01T08:37:23;-0.80;99.90
8872;DHT22;4472;52.092;9.820;2023-03-01T08:40:12;-0.60;99.90
8872;DHT22;4472;52.092;9.820;2023-03-01T08:43:00;-0.50;99.90
8872;DHT22;4472;52.092;9.820;2023-03-01T08:45:48;-0.40;99.90
8872;DHT22;4472;52.092;9.820;2023-03-01T08:48:35;-0.30;99.90
8872;DHT22;4472;52.092;9.820;2023-03-01T08:51:23;-0.20;99.90
8872;DHT22;4472;52.092;9.820;2023-03-01T08:54:13;-0.10;99.90
8872;DHT22;4472;52.092;9.820;2023-03-01T08:57:03;0.50;99.90
8872;DHT22;4472;52.092;9.820;2023-03-01T08:59:50;0.20;99.90
8872;DHT22;4472;52.092;9.820;2023-03-01T09:02:37;0.70;99.90
8872;DHT22;4472;52.092;9.820;2023-03-01T09:05:24;0.40;99.90
8872;DHT22;4472;52.092;9.820;2023-03-01T09:08:11;0.20;99.90
8872;DHT22;4472;52.092;9.820;2023-03-01T09:11:01;0.60;99.90
8872;DHT22;4472;52.092;9.820;2023-03-01T09:13:49;0.70;99.90
8872;DHT22;4472;52.092;9.820;2023-03-01T09:16:37;1.30;99.90
8872;DHT22;4472;52.092;9.820;2023-03-01T09:19:24;0.50;99.90
8872;DHT22;4472;52.092;9.820;2023-03-01T09:22:11;1.10;99.90
8872;DHT22;4472;52.092;9.820;2023-03-01T09:24:58;1.20;99.90
8872;DHT22;4472;52.092;9.820;2023-03-01T09:27:45;1.40;99.90
8872;DHT22;4472;52.092;9.820;2023-03-01T09:30:34;1.50;99.90
8872;DHT22;4472;52.092;9.820;2023-03-01T09:33:21;1.70;99.90
8872;DHT22;4472;52.092;9.820;2023-03-01T09:36:11;1.80;99.90
8872;DHT22;4472;52.092;9.820;2023-03-01T09:39:00;1.90;99.90
8872;DHT22;4472;52.092;9.820;2023-03-01T09:41:50;1.90;99.90
8872;DHT22;4472;52.092;9.820;2023-03-01T09:44:46;2.40;99.90
8872;DHT22;4472;52.092;9.820;2023-03-01T09:47:37;2.40;99.90
8872;DHT22;4472;52.092;9.820;2023-03-01T09:50:27;2.60;99.90
8872;DHT22;4472;52.092;9.820;2023-03-01T09:53:17;2.80;99.90
8872;DHT22;4472;52.092;9.820;2023-03-01T09:56:10;3.00;99.90
8872;DHT22;4472;52.092;9.820;2023-03-01T09:59:04;3.00;99.90
8872;DHT22;4472;52.092;9.820;2023-03-01T10:02:00;3.00;99.90
8872;DHT22;4472;52.092;9.820;2023-03-01T10:04:55;3.30;99.90
8872;DHT22;4472;52.092;9.820;2023-03-01T10:07:48;3.30;99.90
8872;DHT22;4472;52.092;9.820;2023-03-01T10:10:45;3.40;99.90
8872;DHT22;4472;52.092;9.820;2023-03-01T10:13:46;3.80;99.90
8872;DHT22;4472;52.092;9.820;2023-03-01T10:16:43;3.70;99.90
8872;DHT22;4472;52.092;9.820;2023-03-01T10:19:38;3.90;99.80
8872;DHT22;4472;52.092;9.820;2023-03-01T10:22:29;3.90;99.90
8872;DHT22;4472;52.092;9.820;2023-03-01T10:25:24;3.80;99.90
8872;DHT22;4472;52.092;9.820;2023-03-01T10:28:17;4.10;99.90
8872;DHT22;4472;52.092;9.820;2023-03-01T10:31:05;4.30;99.60
8872;DHT22;4472;52.092;9.820;2023-03-01T10:33:58;4.30;99.50
8872;DHT22;4472;52.092;9.820;2023-03-01T10:36:49;4.40;99.40
8872;DHT22;4472;52.092;9.820;2023-03-01T10:39:55;4.50;98.50
8872;DHT22;4472;52.092;9.820;2023-03-01T10:42:47;4.50;95.80
8872;DHT22;4472;52.092;9.820;2023-03-01T10:45:37;4.70;96.90
8872;DHT22;4472;52.092;9.820;2023-03-01T10:48:26;4.60;96.00
8872;DHT22;4472;52.092;9.820;2023-03-01T10:51:17;4.70;97.10
8872;DHT22;4472;52.092;9.820;2023-03-01T10:54:16;4.80;95.90
8872;DHT22;4472;52.092;9.820;2023-03-01T10:57:05;4.80;96.40
8872;DHT22;4472;52.092;9.820;2023-03-01T11:00:02;5.00;96.90
8872;DHT22;4472;52.092;9.820;2023-03-01T11:03:02;5.10;95.80
8872;DHT22;4472;52.092;9.820;2023-03-01T11:06:04;5.40;96.40
8872;DHT22;4472;52.092;9.820;2023-03-01T11:08:52;5.10;96.90
8872;DHT22;4472;52.092;9.820;2023-03-01T11:11:39;5.20;96.80
8872;DHT22;4472;52.092;9.820;2023-03-01T11:14:33;5.20;96.00
8872;DHT22;4472;52.092;9.820;2023-03-01T11:17:24;5.20;95.30
8872;DHT22;4472;52.092;9.820;2023-03-01T11:20:20;5.20;95.10
8872;DHT22;4472;52.092;9.820;2023-03-01T11:23:12;5.10;94.10
8872;DHT22;4472;52.092;9.820;2023-03-01T11:26:02;5.10;94.80
8872;DHT22;4472;52.092;9.820;2023-03-01T11:28:55;4.60;94.00
8872;DHT22;4472;52.092;9.820;2023-03-01T11:31:46;5.40;94.90
8872;DHT22;4472;52.092;9.820;2023-03-01T11:34:40;5.40;95.00
8872;DHT22;4472;52.092;9.820;2023-03-01T11:37:33;5.40;94.00
8872;DHT22;4472;52.092;9.820;2023-03-01T11:40:24;5.40;94.70
8872;DHT22;4472;52.092;9.820;2023-03-01T11:43:17;5.60;94.10
8872;DHT22;4472;52.092;9.820;2023-03-01T11:46:34;5.40;93.80
8872;DHT22;4472;52.092;9.820;2023-03-01T11:49:49;5.50;93.90
8872;DHT22;4472;52.092;9.820;2023-03-01T11:52:52;5.50;93.40
8872;DHT22;4472;52.092;9.820;2023-03-01T11:55:53;5.50;93.40
8872;DHT22;4472;52.092;9.820;2023-03-01T11:59:01;5.40;93.70
8872;DHT22;4472;52.092;9.820;2023-03-01T12:02:02;5.50;92.80
8872;DHT22;4472;52.092;9.820;2023-03-01T12:05:14;5.80;93.10
8872;DHT22;4472;52.092;9.820;2023-03-01T12:08:10;5.70;93.90
8872;DHT22;4472;52.092;9.820;2023-03-01T12:11:06;5.70;94.40
8872;DHT22;4472;52.092;9.820;2023-03-01T12:14:08;5.80;92.40
8872;DHT22;4472;52.092;9.820;2023-03-01T12:17:18;5.80;93.30
8872;DHT22;4472;52.092;9.820;2023-03-01T12:20:21;5.80;91.80
8872;DHT22;4472;52.092;9.820;2023-03-01T12:23:41;5.80;92.60
8872;DHT22;4472;52.092;9.820;2023-03-01T12:26:33;5.80;92.10
8872;DHT22;4472;52.092;9.820;2023-03-01T12:29:25;5.80;92.70
8872;DHT22;4472;52.092;9.820;2023-03-01T12:32:21;5.80;92.50
8872;DHT22;4472;52.092;9.820;2023-03-01T12:35:28;6.10;92.50
8872;DHT22;4472;52.092;9.820;2023-03-01T12:38:32;5.90;92.60
8872;DHT22;4472;52.092;9.820;2023-03-01T12:41:46;6.70;92.40
8872;DHT22;4472;52.092;9.820;2023-03-01T12:44:45;6.00;91.40
8872;DHT22;4472;52.092;9.820;2023-03-01T12:47:51;5.90;91.70
8872;DHT22;4472;52.092;9.820;2023-03-01T12:50:47;6.10;92.10
8872;DHT22;4472;52.092;9.820;2023-03-01T12:53:36;6.30;92.60
8872;DHT22;4472;52.092;9.820;2023-03-01T12:56:28;6.20;92.00
8872;DHT22;4472;52.092;9.820;2023-03-01T12:59:19;6.10;92.50
8872;DHT22;4472;52.092;9.820;2023-03-01T13:02:18;6.30;91.50
8872;DHT22;4472;52.092;9.820;2023-03-01T13:05:23;6.30;91.00
8872;DHT22;4472;52.092;9.820;2023-03-01T13:08:16;6.30;90.30
8872;DHT22;4472;52.092;9.820;2023-03-01T13:11:11;6.40;91.10
8872;DHT22;4472;52.092;9.820;2023-03-01T13:14:36;6.40;90.30
8872;DHT22;4472;52.092;9.820;2023-03-01T13:17:33;6.30;90.30
8872;DHT22;4472;52.092;9.820;2023-03-01T13:20:23;6.30;91.20
8872;DHT22;4472;52.092;9.820;2023-03-01T13:23:27;6.40;91.40
8872;DHT22;4472;52.092;9.820;2023-03-01T13:26:17;6.50;90.50
8872;DHT22;4472;52.092;9.820;2023-03-01T13:29:11;6.50;90.80
8872;DHT22;4472;52.092;9.820;2023-03-01T13:32:20;6.50;90.50
8872;DHT22;4472;52.092;9.820;2023-03-01T13:38:46;6.50;90.00
8872;DHT22;4472;52.092;9.820;2023-03-01T13:41:50;6.50;90.20
8872;DHT22;4472;52.092;9.820;2023-03-01T13:44:37;6.60;89.30
8872;DHT22;4472;52.092;9.820;2023-03-01T13:47:27;6.70;90.40
8872;DHT22;4472;52.092;9.820;2023-03-01T13:50:20;6.60;90.20
8872;DHT22;4472;52.092;9.820;2023-03-01T13:53:14;6.60;90.20
8872;DHT22;4472;52.092;9.820;2023-03-01T13:56:08;6.70;90.10
8872;DHT22;4472;52.092;9.820;2023-03-01T13:58:59;6.90;89.20
8872;DHT22;4472;52.092;9.820;2023-03-01T14:01:52;6.50;90.10
8872;DHT22;4472;52.092;9.820;2023-03-01T14:04:40;6.70;90.30
8872;DHT22;4472;52.092;9.820;2023-03-01T14:07:28;6.60;90.60
8872;DHT22;4472;52.092;9.820;2023-03-01T14:10:16;6.60;90.20
8872;DHT22;4472;52.092;9.820;2023-03-01T14:13:18;6.70;90.30
8872;DHT22;4472;52.092;9.820;2023-03-01T14:16:19;6.60;90.00
8872;DHT22;4472;52.092;9.820;2023-03-01T14:19:15;6.70;88.80
8872;DHT22;4472;52.092;9.820;2023-03-01T14:22:14;6.60;89.90
8872;DHT22;4472;52.092;9.820;2023-03-01T14:25:05;6.60;88.80
8872;DHT22;4472;52.092;9.820;2023-03-01T14:27:57;6.60;90.20
8872;DHT22;4472;52.092;9.820;2023-03-01T14:30:48;6.70;89.70
8872;DHT22;4472;52.092;9.820;2023-03-01T14:33:36;6.60;88.10
8872;DHT22;4472;52.092;9.820;2023-03-01T14:36:28;6.70;87.90
8872;DHT22;4472;52.092;9.820;2023-03-01T14:39:19;6.70;88.30
8872;DHT22;4472;52.092;9.820;2023-03-01T14:42:08;7.00;89.10
8872;DHT22;4472;52.092;9.820;2023-03-01T14:44:56;6.50;87.90
8872;DHT22;4472;52.092;9.820;2023-03-01T14:47:46;6.60;87.80
8872;DHT22;4472;52.092;9.820;2023-03-01T14:50:35;6.60;88.50
8872;DHT22;4472;52.092;9.820;2023-03-01T14:53:24;6.90;88.90
8872;DHT22;4472;52.092;9.820;2023-03-01T14:56:14;6.50;88.30
8872;DHT22;4472;52.092;9.820;2023-03-01T14:59:03;6.50;87.80
8872;DHT22;4472;52.092;9.820;2023-03-01T15:01:50;6.50;88.20
8872;DHT22;4472;52.092;9.820;2023-03-01T15:04:40;6.60;87.80
8872;DHT22;4472;52.092;9.820;2023-03-01T15:07:31;6.40;88.00
8872;DHT22;4472;52.092;9.820;2023-03-01T15:10:21;6.40;90.00
8872;DHT22;4472;52.092;9.820;2023-03-01T15:13:12;6.50;90.30
8872;DHT22;4472;52.092;9.820;2023-03-01T15:16:06;6.50;88.70
8872;DHT22;4472;52.092;9.820;2023-03-01T15:18:55;7.10;87.80
8872;DHT22;4472;52.092;9.820;2023-03-01T15:21:48;6.40;87.00
8872;DHT22;4472;52.092;9.820;2023-03-01T15:24:35;6.30;88.30
8872;DHT22;4472;52.092;9.820;2023-03-01T15:27:24;6.40;87.30
8872;DHT22;4472;52.092;9.820;2023-03-01T15:30:17;6.30;87.30
8872;DHT22;4472;52.092;9.820;2023-03-01T15:33:25;6.30;87.10
8872;DHT22;4472;52.092;9.820;2023-03-01T15:36:33;6.30;87.90
8872;DHT22;4472;52.092;9.820;2023-03-01T15:39:37;6.60;89.00
8872;DHT22;4472;52.092;9.820;2023-03-01T15:42:37;6.80;88.90
8872;DHT22;4472;52.092;9.820;2023-03-01T15:48:17;6.10;81.60
8872;DHT22;4472;52.092;9.820;2023-03-01T15:51:12;6.00;83.20
8872;DHT22;4472;52.092;9.820;2023-03-01T15:54:02;6.10;92.40
8872;DHT22;4472;52.092;9.820;2023-03-01T15:56:52;6.00;89.30
8872;DHT22;4472;52.092;9.820;2023-03-01T15:59:39;5.90;87.70
8872;DHT22;4472;52.092;9.820;2023-03-01T16:02:26;5.90;84.30
8872;DHT22;4472;52.092;9.820;2023-03-01T16:05:18;5.90;84.50
8872;DHT22;4472;52.092;9.820;2023-03-01T16:08:06;5.90;84.90
8872;DHT22;4472;52.092;9.820;2023-03-01T16:10:53;5.80;83.70
8872;DHT22;4472;52.092;9.820;2023-03-01T16:13:42;5.80;83.80
8872;DHT22;4472;52.092;9.820;2023-03-01T16:16:29;5.80;84.00
8872;DHT22;4472;52.092;9.820;2023-03-01T16:19:16;5.80;84.50
8872;DHT22;4472;52.092;9.820;2023-03-01T16:22:04;5.70;84.10
8872;DHT22;4472;52.092;9.820;2023-03-01T16:24:51;5.70;85.40
8872;DHT22;4472;52.092;9.820;2023-03-01T16:27:38;5.60;84.90
8872;DHT22;4472;52.092;9.820;2023-03-01T16:30:29;5.60;85.20
8872;DHT22;4472;52.092;9.820;2023-03-01T16:33:16;5.50;85.80
8872;DHT22;4472;52.092;9.820;2023-03-01T16:36:07;5.50;85.70
8872;DHT22;4472;52.092;9.820;2023-03-01T16:38:55;5.40;86.00
8872;DHT22;4472;52.092;9.820;2023-03-01T16:41:44;5.30;86.50
8872;DHT22;4472;52.092;9.820;2023-03-01T16:44:31;5.30;86.80
8872;DHT22;4472;52.092;9.820;2023-03-01T16:47:20;5.20;87.00
8872;DHT22;4472;52.092;9.820;2023-03-01T16:50:08;5.10;87.60
8872;DHT22;4472;52.092;9.820;2023-03-01T16:52:56;5.00;87.90
8872;DHT22;4472;52.092;9.820;2023-03-01T16:55:43;5.10;87.50
8872;DHT22;4472;52.092;9.820;2023-03-01T16:58:31;4.90;87.20
8872;DHT22;4472;52.092;9.820;2023-03-01T17:01:20;4.80;88.20
8872;DHT22;4472;52.092;9.820;2023-03-01T17:04:12;4.70;88.60
8872;DHT22;4472;52.092;9.820;2023-03-01T17:06:59;4.70;88.70
8872;DHT22;4472;52.092;9.820;2023-03-01T17:09:46;4.60;89.70
8872;DHT22;4472;52.092;9.820;2023-03-01T17:12:33;4.40;90.00
8872;DHT22;4472;52.092;9.820;2023-03-01T17:15:21;4.30;89.90
8872;DHT22;4472;52.092;9.820;2023-03-01T17:18:09;4.20;90.10
8872;DHT22;4472;52.092;9.820;2023-03-01T17:20:57;4.20;90.30
8872;DHT22;4472;52.092;9.820;2023-03-01T17:23:47;4.10;90.60
8872;DHT22;4472;52.092;9.820;2023-03-01T17:26:35;4.00;90.90
8872;DHT22;4472;52.092;9.820;2023-03-01T17:29:22;3.80;91.00
8872;DHT22;4472;52.092;9.820;2023-03-01T17:32:09;3.60;91.40
8872;DHT22;4472;52.092;9.820;2023-03-01T17:34:56;3.40;91.90
8872;DHT22;4472;52.092;9.820;2023-03-01T17:37:45;3.20;92.70
8872;DHT22;4472;52.092;9.820;2023-03-01T17:40:32;3.00;93.20
8872;DHT22;4472;52.092;9.820;2023-03-01T17:43:20;2.90;93.40
8872;DHT22;4472;52.092;9.820;2023-03-01T17:46:08;2.70;93.80
8872;DHT22;4472;52.092;9.820;2023-03-01T17:48:55;2.60;94.20
8872;DHT22;4472;52.092;9.820;2023-03-01T17:51:42;2.40;94.50
8872;DHT22;4472;52.092;9.820;2023-03-01T17:54:31;2.30;95.30
8872;DHT22;4472;52.092;9.820;2023-03-01T17:57:18;2.20;95.00
8872;DHT22;4472;52.092;9.820;2023-03-01T18:00:08;2.10;95.00
8872;DHT22;4472;52.092;9.820;2023-03-01T18:02:55;1.90;95.10
8872;DHT22;4472;52.092;9.820;2023-03-01T18:05:43;1.80;96.00
8872;DHT22;4472;52.092;9.820;2023-03-01T18:08:30;1.60;96.60
8872;DHT22;4472;52.092;9.820;2023-03-01T18:11:23;1.60;96.90
8872;DHT22;4472;52.092;9.820;2023-03-01T18:14:10;1.50;97.50
8872;DHT22;4472;52.092;9.820;2023-03-01T18:16:57;1.40;97.60
8872;DHT22;4472;52.092;9.820;2023-03-01T18:19:44;1.30;98.00
8872;DHT22;4472;52.092;9.820;2023-03-01T18:22:31;1.20;98.90
8872;DHT22;4472;52.092;9.820;2023-03-01T18:25:19;1.20;98.90
8872;DHT22;4472;52.092;9.820;2023-03-01T18:28:08;1.10;99.10
8872;DHT22;4472;52.092;9.820;2023-03-01T18:33:45;1.00;99.90
8872;DHT22;4472;52.092;9.820;2023-03-01T18:36:34;0.90;99.60
8872;DHT22;4472;52.092;9.820;2023-03-01T18:39:21;0.80;99.60
8872;DHT22;4472;52.092;9.820;2023-03-01T18:42:08;0.80;99.90
8872;DHT22;4472;52.092;9.820;2023-03-01T18:44:57;0.70;99.90
8872;DHT22;4472;52.092;9.820;2023-03-01T18:47:44;0.60;99.90
8872;DHT22;4472;52.092;9.820;2023-03-01T18:50:34;0.60;99.90
8872;DHT22;4472;52.092;9.820;2023-03-01T18:53:21;0.60;99.90
8872;DHT22;4472;52.092;9.820;2023-03-01T18:56:09;0.60;99.90
8872;DHT22;4472;52.092;9.820;2023-03-01T18:58:56;0.50;99.90
8872;DHT22;4472;52.092;9.820;2023-03-01T19:01:45;0.50;99.90
8872;DHT22;4472;52.092;9.820;2023-03-01T19:04:32;0.50;99.90
8872;DHT22;4472;52.092;9.820;2023-03-01T19:07:19;0.50;99.90
8872;DHT22;4472;52.092;9.820;2023-03-01T19:10:08;0.40;99.90
8872;DHT22;4472;52.092;9.820;2023-03-01T19:12:55;0.40;99.90
8872;DHT22;4472;52.092;9.820;2023-03-01T19:15:42;0.40;99.90
8872;DHT22;4472;52.092;9.820;2023-03-01T19:18:31;0.30;99.90
8872;DHT22;4472;52.092;9.820;2023-03-01T19:21:19;0.30;99.90
8872;DHT22;4472;52.092;9.820;2023-03-01T19:24:07;0.20;99.90
8872;DHT22;4472;52.092;9.820;2023-03-01T19:26:55;0.20;99.90
8872;DHT22;4472;52.092;9.820;2023-03-01T19:29:43;0.20;99.90
8872;DHT22;4472;52.092;9.820;2023-03-01T19:32:30;0.10;99.90
8872;DHT22;4472;52.092;9.820;2023-03-01T19:35:19;0.10;99.90
8872;DHT22;4472;52.092;9.820;2023-03-01T19:38:06;0.10;99.90
8872;DHT22;4472;52.092;9.820;2023-03-01T19:40:53;0.10;99.90
8872;DHT22;4472;52.092;9.820;2023-03-01T19:43:41;0.00;99.90
8872;DHT22;4472;52.092;9.820;2023-03-01T19:46:29;0.10;99.90
8872;DHT22;4472;52.092;9.820;2023-03-01T19:49:16;0.00;99.90
8872;DHT22;4472;52.092;9.820;2023-03-01T19:52:04;0.00;99.90
8872;DHT22;4472;52.092;9.820;2023-03-01T19:54:51;0.00;99.90
8872;DHT22;4472;52.092;9.820;2023-03-01T19:57:39;0.00;99.90
8872;DHT22;4472;52.092;9.820;2023-03-01T20:00:26;-0.10;99.90
8872;DHT22;4472;52.092;9.820;2023-03-01T20:03:13;-0.10;99.90
8872;DHT22;4472;52.092;9.820;2023-03-01T20:06:07;-0.10;99.90
8872;DHT22;4472;52.092;9.820;2023-03-01T20:08:56;-0.10;99.90
8872;DHT22;4472;52.092;9.820;2023-03-01T20:11:43;-0.20;99.90
8872;DHT22;4472;52.092;9.820;2023-03-01T20:14:30;-0.20;99.90
8872;DHT22;4472;52.092;9.820;2023-03-01T20:17:18;-0.20;99.90
8872;DHT22;4472;52.092;9.820;2023-03-01T20:20:05;-0.30;99.90
8872;DHT22;4472;52.092;9.820;2023-03-01T20:22:52;-0.30;99.90
8872;DHT22;4472;52.092;9.820;2023-03-01T20:25:41;-0.30;99.90
8872;DHT22;4472;52.092;9.820;2023-03-01T20:28:28;-0.30;99.90
8872;DHT22;4472;52.092;9.820;2023-03-01T20:31:17;-0.40;99.90
8872;DHT22;4472;52.092;9.820;2023-03-01T20:34:05;-0.40;99.90
8872;DHT22;4472;52.092;9.820;2023-03-01T20:36:52;-0.50;99.90
8872;DHT22;4472;52.092;9.820;2023-03-01T20:39:41;-0.50;99.90
8872;DHT22;4472;52.092;9.820;2023-03-01T20:42:29;-0.40;99.90
8872;DHT22;4472;52.092;9.820;2023-03-01T20:45:17;-0.50;99.90
8872;DHT22;4472;52.092;9.820;2023-03-01T20:48:05;-0.60;99.90
8872;DHT22;4472;52.092;9.820;2023-03-01T20:50:52;-0.50;99.90